Gunnison Bend Reservoir




Date 2017 Hourly Average Reservoir Capacity (AF) 2017 Canal Flow (cfs) 2017 Battery Voltage (V) 2017 Reservoir Height (ft) 2017 Gate Height 1 (ft) 2017 Gate Height 2 (ft)
12/01/2017 1,130 0.00 13.34 6.47 0.01 -0.02
12/02/2017 1,142 0.00 13.27 6.50 0.01 -0.02
12/03/2017 1,152 0.00 13.31 6.53 0.01 -0.02
12/04/2017 1,141 0.00 13.16 6.50 0.01 -0.02
12/05/2017 1,174 0.00 13.41 6.59 0.01 -0.02
12/06/2017 1,178 0.00 13.40 6.60 0.01 -0.02
12/07/2017 1,182 0.00 13.42 6.61 0.01 -0.02
12/08/2017 1,188 0.00 13.38 6.63 0.01 -0.02
12/09/2017 1,194 0.00 13.38 6.64 0.01 -0.02
12/10/2017 1,206 0.00 13.37 6.68 0.01 -0.02
12/11/2017 1,210 0.00 13.37 6.69 0.01 -0.02
12/12/2017 1,223 0.00 13.38 6.72 0.01 -0.02
12/13/2017 1,225 0.00 13.36 6.73 0.01 -0.02
12/14/2017 1,238 0.00 13.32 6.76 0.01 -0.02
12/15/2017 1,252 0.00 13.36 6.80 0.01 -0.02
12/16/2017 1,253 0.00 13.34 6.80 0.01 -0.02
12/17/2017 1,263 0.00 13.04 6.83 0.01 -0.02
12/18/2017 1,279 0.00 13.09 6.87 0.01 -0.03
12/19/2017 1,283 0.00 13.34 6.89 0.01 -0.02
12/20/2017 1,289 0.00 13.36 6.90 0.01 -0.02
12/21/2017 1,303 0.00 13.18 6.94 0.01 -0.02
12/22/2017 1,306 0.00 13.24 6.95 0.01 -0.02
12/23/2017 1,308 0.00 13.44 6.95 0.01 -0.02
12/24/2017 1,316 0.00 13.17 6.97 0.01 -0.02
12/25/2017 1,323 0.00 13.26 6.99 0.01 -0.02
12/26/2017 1,331 0.00 13.34 7.01 0.01 -0.02
12/27/2017 1,338 0.00 13.32 7.03 0.01 -0.02
12/28/2017 1,344 0.00 13.32 7.04 0.01 -0.02
12/29/2017 1,346 0.00 13.31 7.05 0.01 -0.02
12/30/2017 1,343 0.00 13.31 7.04 0.01 -0.02
12/31/2017 1,354 0.00 13.14 7.07 0.01 -0.02
Average 0.00
Maximum 0.00
Minimum 0.00
Total Volume (AF) 0.00